Time;durP1;ratioP1;P1;durP2;ratioP2;P2;SDS_P1;SDS_P2;PMS_P1;PMS_P2;Temp;Humidity;BMP_temperature;BMP_pressure;BME280_temperature;BME280_humidity;BME280_pressure;Samples;Min_cycle;Max_cycle;Signal;HPM_P1;HPM_P2
2023/03/10 00:01:10;;;;;;;124.13;98.72;;;27.20;99.90;;;;;;5033509;28;20033;-67
2023/03/10 00:03:38;;;;;;;116.25;97.32;;;27.10;99.90;;;;;;5033527;28;20036;-68
2023/03/10 00:06:05;;;;;;;128.48;99.07;;;27.20;99.90;;;;;;5052883;28;20021;-66
2023/03/10 00:08:31;;;;;;;143.18;113.13;;;27.20;99.90;;;;;;5053440;28;20082;-67
2023/03/10 00:10:59;;;;;;;139.10;104.65;;;27.20;99.90;;;;;;5053528;28;20025;-67
2023/03/10 00:13:26;;;;;;;121.63;94.43;;;27.20;99.90;;;;;;5052983;28;20040;-67
2023/03/10 00:15:53;;;;;;;106.63;82.57;;;27.10;99.90;;;;;;5053389;28;20117;-68
2023/03/10 00:18:19;;;;;;;113.75;88.28;;;27.00;99.90;;;;;;5053428;28;20458;-67
2023/03/10 00:20:46;;;;;;;107.63;82.68;;;27.00;99.90;;;;;;5053233;28;20100;-66
2023/03/10 00:23:12;;;;;;;100.70;81.32;;;27.10;99.90;;;;;;5053835;28;20037;-67
2023/03/10 00:25:38;;;;;;;102.25;79.43;;;27.10;99.90;;;;;;5053313;28;20036;-67
2023/03/10 00:28:05;;;;;;;103.40;78.05;;;27.10;99.90;;;;;;5053193;28;20024;-67
2023/03/10 00:30:34;;;;;;;113.05;86.25;;;27.10;99.90;;;;;;5053394;28;20413;-67
2023/03/10 00:33:02;;;;;;;110.93;87.97;;;27.20;99.90;;;;;;5053118;28;20033;-67
2023/03/10 00:35:28;;;;;;;115.95;96.78;;;27.20;99.90;;;;;;5053369;28;20037;-68
2023/03/10 00:37:55;;;;;;;116.75;95.68;;;27.20;99.90;;;;;;5053124;28;20032;-68
2023/03/10 00:40:22;;;;;;;118.88;94.80;;;27.20;99.90;;;;;;5053143;28;20135;-68
2023/03/10 00:42:48;;;;;;;119.80;95.70;;;27.30;99.90;;;;;;5052971;28;20420;-68
2023/03/10 00:45:15;;;;;;;117.28;99.63;;;27.30;99.90;;;;;;5052928;28;20359;-68
2023/03/10 00:47:41;;;;;;;120.90;97.43;;;27.30;99.90;;;;;;5052926;28;20049;-68
2023/03/10 00:50:09;;;;;;;107.90;79.53;;;27.40;99.90;;;;;;5053241;28;20017;-68
2023/03/10 00:52:35;;;;;;;89.63;74.65;;;27.40;99.90;;;;;;5052881;28;20074;-68
2023/03/10 00:55:02;;;;;;;91.30;74.70;;;27.30;99.90;;;;;;5052983;28;20466;-68
2023/03/10 00:57:28;;;;;;;98.18;79.47;;;27.30;99.90;;;;;;5053172;28;20035;-68
2023/03/10 00:59:55;;;;;;;104.70;85.90;;;27.30;99.90;;;;;;5052939;28;20028;-68
2023/03/10 01:02:22;;;;;;;122.28;90.32;;;27.30;99.90;;;;;;5053081;28;20025;-68
2023/03/10 01:04:48;;;;;;;114.75;82.50;;;27.30;99.90;;;;;;5052741;28;20071;-68
2023/03/10 01:07:15;;;;;;;101.93;79.97;;;27.40;99.90;;;;;;5052829;28;20024;-68
2023/03/10 01:09:41;;;;;;;105.43;84.82;;;27.30;99.90;;;;;;5052845;28;20111;-68
2023/03/10 01:12:08;;;;;;;118.18;93.63;;;27.30;99.90;;;;;;5052896;28;20025;-68
2023/03/10 01:14:35;;;;;;;101.43;84.22;;;27.30;99.90;;;;;;5052680;28;20049;-68
2023/03/10 01:17:02;;;;;;;99.68;81.28;;;27.30;99.90;;;;;;5050705;28;20029;-68
2023/03/10 01:19:29;;;;;;;102.88;88.60;;;27.40;99.90;;;;;;5043136;28;20034;-68
2023/03/10 01:21:56;;;;;;;95.38;74.55;;;27.40;99.90;;;;;;5032734;28;20022;-68
2023/03/10 01:24:22;;;;;;;32.55;26.80;;;27.30;99.90;;;;;;5032763;28;20429;-67
2023/03/10 01:26:49;;;;;;;25.10;17.73;;;27.20;99.90;;;;;;5032810;28;20083;-68
2023/03/10 01:29:15;;;;;;;16.33;10.43;;;27.10;99.90;;;;;;5033156;28;20057;-68
2023/03/10 01:31:42;;;;;;;14.25;8.88;;;27.00;99.90;;;;;;5036484;28;20013;-68
2023/03/10 01:34:08;;;;;;;11.40;8.25;;;26.90;99.90;;;;;;5036432;28;20021;-67
2023/03/10 01:36:35;;;;;;;43.25;34.90;;;26.90;99.90;;;;;;5036205;28;20029;-66
2023/03/10 01:39:02;;;;;;;33.67;23.80;;;26.90;99.90;;;;;;5036234;28;20022;-68
2023/03/10 01:41:28;;;;;;;18.02;11.70;;;26.80;99.90;;;;;;5036550;28;20031;-68
2023/03/10 01:43:55;;;;;;;11.48;7.68;;;26.90;99.90;;;;;;5036095;28;20057;-67
2023/03/10 01:46:40;;;;;;;14.23;8.70;;;26.90;99.90;;;;;;5036298;28;20048;-68
2023/03/10 01:49:20;;;;;;;28.85;15.25;;;27.00;99.90;;;;;;5036602;28;20025;-68
2023/03/10 01:52:08;;;;;;;47.08;33.63;;;27.00;99.90;;;;;;5036460;28;20013;-68
2023/03/10 01:54:54;;;;;;;79.65;57.97;;;27.10;99.90;;;;;;5036457;28;20064;-68
2023/03/10 01:57:26;;;;;;;44.72;33.03;;;27.20;99.90;;;;;;5050738;28;20021;-68
2023/03/10 01:59:54;;;;;;;18.92;12.27;;;27.20;99.90;;;;;;5055652;28;20025;-68
2023/03/10 02:02:22;;;;;;;11.50;8.05;;;27.30;99.90;;;;;;5055784;28;20511;-68
2023/03/10 02:04:49;;;;;;;10.75;7.30;;;27.30;99.90;;;;;;5055818;28;20025;-67
2023/03/10 02:07:20;;;;;;;12.90;8.95;;;27.30;99.90;;;;;;5056089;28;20029;-66
2023/03/10 02:09:49;;;;;;;12.50;8.55;;;27.40;99.90;;;;;;5056138;28;20018;-67
2023/03/10 02:12:17;;;;;;;13.18;9.75;;;27.50;99.90;;;;;;5056177;28;20025;-68
2023/03/10 02:14:46;;;;;;;14.07;9.40;;;27.60;99.90;;;;;;5055659;28;20024;-68
2023/03/10 02:17:18;;;;;;;13.10;9.35;;;27.60;99.90;;;;;;5055755;28;20032;-68
2023/03/10 02:19:51;;;;;;;11.25;8.25;;;27.60;99.90;;;;;;5055547;28;20047;-68
2023/03/10 02:22:17;;;;;;;10.85;7.00;;;27.70;99.90;;;;;;5053426;28;20489;-68
2023/03/10 02:24:53;;;;;;;9.98;6.07;;;27.70;99.90;;;;;;5042733;28;20025;-68
2023/03/10 02:27:26;;;;;;;32.90;27.50;;;27.80;99.90;;;;;;5055626;28;20134;-68
2023/03/10 02:30:07;;;;;;;91.72;61.63;;;27.90;99.90;;;;;;5055378;28;20028;-67
2023/03/10 02:32:46;;;;;;;16.60;12.52;;;27.90;99.90;;;;;;5055109;28;20490;-68
2023/03/10 02:35:13;;;;;;;15.93;11.48;;;27.90;99.90;;;;;;5055432;28;20025;-68
2023/03/10 02:37:40;;;;;;;181.73;114.63;;;28.00;99.90;;;;;;5055043;28;20453;-68
2023/03/10 02:40:28;;;;;;;23.13;17.08;;;28.00;99.90;;;;;;5055125;28;20025;-68
2023/03/10 02:42:55;;;;;;;11.32;8.02;;;28.10;99.90;;;;;;5034883;28;20029;-67
2023/03/10 02:45:23;;;;;;;17.65;12.18;;;28.10;99.90;;;;;;5035167;28;20104;-67
2023/03/10 02:47:49;;;;;;;9.82;6.97;;;28.10;99.90;;;;;;5050765;28;20060;-66
2023/03/10 02:50:16;;;;;;;11.80;6.80;;;28.20;99.90;;;;;;5054888;28;20017;-66
2023/03/10 02:53:05;;;;;;;10.70;7.05;;;28.20;99.90;;;;;;5055154;28;20130;-67
2023/03/10 02:55:32;;;;;;;9.75;7.13;;;28.20;99.90;;;;;;5054995;28;20021;-67
2023/03/10 02:58:01;;;;;;;10.77;7.57;;;28.20;99.90;;;;;;5055142;28;20021;-66
2023/03/10 03:00:28;;;;;;;13.98;7.32;;;28.30;99.90;;;;;;5055424;28;20037;-65
2023/03/10 03:02:55;;;;;;;17.20;9.25;;;28.40;99.90;;;;;;5054980;28;20115;-65
2023/03/10 03:05:22;;;;;;;10.40;7.13;;;28.50;99.90;;;;;;5055504;28;20025;-65
2023/03/10 03:07:48;;;;;;;11.73;6.35;;;28.60;99.90;;;;;;5055193;28;20035;-66
2023/03/10 03:10:15;;;;;;;7.68;5.70;;;28.60;99.90;;;;;;5055011;28;20243;-65
2023/03/10 03:12:41;;;;;;;13.85;8.70;;;28.60;99.90;;;;;;5054749;28;20021;-66
2023/03/10 03:15:08;;;;;;;14.32;8.65;;;28.70;99.90;;;;;;5054999;28;20359;-66
2023/03/10 03:17:35;;;;;;;12.52;9.02;;;28.70;99.90;;;;;;5054569;28;20032;-65
2023/03/10 03:20:10;;;;;;;12.73;8.70;;;28.80;99.90;;;;;;5054401;28;20033;-66
2023/03/10 03:22:37;;;;;;;26.70;12.25;;;28.80;99.90;;;;;;5052947;28;20052;-65
2023/03/10 03:25:04;;;;;;;18.92;10.88;;;28.80;99.90;;;;;;5044985;28;20032;-66
2023/03/10 03:27:31;;;;;;;13.48;8.02;;;28.90;99.90;;;;;;5034389;28;20018;-67
2023/03/10 03:29:59;;;;;;;11.32;7.60;;;28.90;99.90;;;;;;5034965;28;20433;-65
2023/03/10 03:32:26;;;;;;;10.32;7.35;;;28.90;99.90;;;;;;5034084;28;20029;-68
2023/03/10 03:34:52;;;;;;;12.63;7.15;;;28.80;99.90;;;;;;5034208;28;20021;-66
2023/03/10 03:37:19;;;;;;;16.23;9.82;;;28.80;99.90;;;;;;5034287;28;20096;-65
2023/03/10 03:39:45;;;;;;;19.25;13.70;;;28.80;99.90;;;;;;5034188;28;20049;-65
2023/03/10 03:42:12;;;;;;;33.83;15.98;;;28.80;99.90;;;;;;5034164;28;20026;-66
2023/03/10 03:44:38;;;;;;;23.95;15.82;;;28.80;99.90;;;;;;5034347;28;20021;-65
2023/03/10 03:47:07;;;;;;;24.00;14.98;;;28.70;99.90;;;;;;5033988;28;20049;-65
2023/03/10 03:49:34;;;;;;;11.90;7.15;;;28.70;99.90;;;;;;5036910;28;20037;-65
2023/03/10 03:52:01;;;;;;;13.98;5.97;;;28.60;99.90;;;;;;5033267;28;20021;-65
2023/03/10 03:54:27;;;;;;;20.95;6.93;;;28.40;99.90;;;;;;5043781;28;20048;-67
2023/03/10 03:56:54;;;;;;;30.15;10.48;;;28.20;99.90;;;;;;5034585;28;20021;-65
2023/03/10 03:59:20;;;;;;;31.40;14.38;;;28.00;99.90;;;;;;5033644;28;20032;-67
2023/03/10 04:01:47;;;;;;;22.52;9.43;;;27.70;99.90;;;;;;5033505;28;20489;-66
2023/03/10 04:04:14;;;;;;;21.42;10.35;;;27.60;99.90;;;;;;5033624;28;20032;-67
2023/03/10 04:06:40;;;;;;;25.50;8.35;;;27.40;99.90;;;;;;5033503;28;20532;-68
2023/03/10 04:09:09;;;;;;;17.92;6.88;;;27.30;99.90;;;;;;5033513;28;20486;-69
2023/03/10 04:11:36;;;;;;;24.90;9.07;;;27.20;99.90;;;;;;5033821;28;20021;-68
2023/03/10 04:14:02;;;;;;;21.70;10.30;;;27.20;99.90;;;;;;5046626;28;20028;-68
2023/03/10 04:16:29;;;;;;;18.35;8.30;;;27.20;99.90;;;;;;5052111;28;20159;-66
2023/03/10 04:18:56;;;;;;;24.35;9.45;;;27.10;99.90;;;;;;5051680;28;20092;-66
2023/03/10 04:21:22;;;;;;;16.27;7.05;;;27.10;99.90;;;;;;5051841;28;20078;-67
2023/03/10 04:23:49;;;;;;;11.63;6.05;;;27.00;99.90;;;;;;5050603;28;20025;-67
2023/03/10 04:26:15;;;;;;;11.15;6.55;;;27.00;99.90;;;;;;5051043;28;20025;-67
2023/03/10 04:28:42;;;;;;;11.48;7.72;;;27.00;99.90;;;;;;5051198;28;20013;-67
2023/03/10 04:31:17;;;;;;;13.93;8.95;;;27.10;99.90;;;;;;5050968;28;20013;-66
2023/03/10 04:33:44;;;;;;;15.50;9.27;;;27.10;99.90;;;;;;5049700;28;20076;-67
2023/03/10 04:36:10;;;;;;;14.93;9.77;;;27.20;99.90;;;;;;5051665;28;20025;-65
2023/03/10 04:38:38;;;;;;;14.48;7.72;;;27.20;99.90;;;;;;5052454;28;20029;-68
2023/03/10 04:41:05;;;;;;;12.75;6.20;;;27.20;99.90;;;;;;5052103;28;20025;-68
2023/03/10 04:43:32;;;;;;;11.73;6.30;;;27.30;99.90;;;;;;5052888;28;20029;-68
2023/03/10 04:45:58;;;;;;;9.10;7.05;;;27.30;99.90;;;;;;5052621;28;20017;-70
2023/03/10 04:48:25;;;;;;;14.00;9.25;;;27.40;99.90;;;;;;5052616;28;20072;-66
2023/03/10 04:51:06;;;;;;;14.95;7.93;;;27.50;99.90;;;;;;5050134;28;20108;-68
2023/03/10 04:53:34;;;;;;;10.17;6.10;;;27.50;99.90;;;;;;5050025;28;20021;-68
2023/03/10 04:56:02;;;;;;;7.72;5.30;;;27.60;99.90;;;;;;5052247;28;20018;-67
2023/03/10 04:58:29;;;;;;;9.80;5.22;;;27.70;99.90;;;;;;5052478;28;20416;-67
2023/03/10 05:00:56;;;;;;;11.05;4.95;;;27.70;99.90;;;;;;5052599;28;20021;-65
2023/03/10 05:03:22;;;;;;;10.77;5.20;;;27.80;99.90;;;;;;5052439;28;20025;-68
2023/03/10 05:05:49;;;;;;;11.88;6.57;;;27.90;99.90;;;;;;5054916;28;20083;-67
2023/03/10 05:08:15;;;;;;;11.52;6.78;;;27.90;99.90;;;;;;5056164;28;20051;-66
2023/03/10 05:10:44;;;;;;;10.52;6.50;;;28.10;99.90;;;;;;5056572;28;20021;-68
2023/03/10 05:13:11;;;;;;;10.73;6.25;;;28.10;99.90;;;;;;5055826;28;20045;-65
2023/03/10 05:15:41;;;;;;;17.88;6.88;;;28.30;99.90;;;;;;5055561;28;20064;-67
2023/03/10 05:18:10;;;;;;;11.20;6.60;;;28.40;99.90;;;;;;5055567;28;20017;-67
2023/03/10 05:20:38;;;;;;;13.13;6.70;;;28.50;99.90;;;;;;5055734;28;20044;-69
2023/03/10 05:23:05;;;;;;;9.50;7.00;;;28.60;99.90;;;;;;5055617;28;20075;-67
2023/03/10 05:25:31;;;;;;;13.27;7.97;;;28.70;99.90;;;;;;5055571;28;20013;-69
2023/03/10 05:27:58;;;;;;;9.68;5.88;;;28.70;99.90;;;;;;5055820;28;20029;-66
2023/03/10 05:30:24;;;;;;;11.20;6.43;;;28.90;99.90;;;;;;5055391;28;20017;-66
2023/03/10 05:32:51;;;;;;;10.60;5.28;;;29.00;99.90;;;;;;5055631;28;20017;-66
2023/03/10 05:35:18;;;;;;;11.60;5.60;;;29.10;99.90;;;;;;5055790;28;20142;-66
2023/03/10 05:37:44;;;;;;;8.55;5.13;;;29.20;99.90;;;;;;5055916;28;20021;-67
2023/03/10 05:40:18;;;;;;;13.10;6.25;;;29.30;99.90;;;;;;5054109;28;20031;-67
2023/03/10 05:42:46;;;;;;;9.18;6.15;;;29.40;99.90;;;;;;5036794;28;20092;-67
2023/03/10 05:45:13;;;;;;;10.70;6.13;;;29.50;99.90;;;;;;5036775;28;20028;-65
2023/03/10 05:47:41;;;;;;;10.63;5.80;;;29.50;99.90;;;;;;5036917;28;20133;-67
2023/03/10 05:50:09;;;;;;;7.80;4.65;;;29.60;99.90;;;;;;5036778;28;20080;-66
2023/03/10 05:52:40;;;;;;;8.07;4.43;;;29.60;99.90;;;;;;5036700;28;20545;-67
2023/03/10 05:55:10;;;;;;;8.45;4.80;;;29.70;99.90;;;;;;5036654;28;20030;-67
2023/03/10 05:57:37;;;;;;;7.40;4.80;;;29.70;99.90;;;;;;5036734;28;20135;-67
2023/03/10 06:00:08;;;;;;;6.10;4.50;;;29.70;99.90;;;;;;5036427;28;20544;-67
2023/03/10 06:02:39;;;;;;;6.95;4.28;;;29.70;99.90;;;;;;5044611;28;20040;-67
2023/03/10 06:05:08;;;;;;;8.50;3.85;;;29.70;99.90;;;;;;5055819;28;20032;-68
2023/03/10 06:07:35;;;;;;;6.28;3.85;;;29.80;99.90;;;;;;5055747;28;20025;-67
2023/03/10 06:10:02;;;;;;;9.13;4.20;;;29.80;99.90;;;;;;5053284;28;20021;-67
2023/03/10 06:12:30;;;;;;;6.22;4.20;;;29.90;99.90;;;;;;5055422;28;20029;-72
2023/03/10 06:14:57;;;;;;;6.88;4.45;;;29.90;99.90;;;;;;5054963;28;20440;-70
2023/03/10 06:17:23;;;;;;;7.65;4.07;;;30.00;99.90;;;;;;5047400;28;20033;-68
2023/03/10 06:19:51;;;;;;;8.52;4.78;;;30.10;99.90;;;;;;5037577;28;20532;-69
2023/03/10 06:22:18;;;;;;;7.82;4.60;;;30.20;99.90;;;;;;5036996;28;20359;-70
2023/03/10 06:24:44;;;;;;;9.05;4.53;;;30.20;99.90;;;;;;5036303;28;20076;-70
2023/03/10 06:27:11;;;;;;;8.60;4.47;;;30.30;99.90;;;;;;5035743;28;20021;-69
2023/03/10 06:29:38;;;;;;;6.97;4.88;;;30.50;99.90;;;;;;5036402;28;20033;-69
2023/03/10 06:32:04;;;;;;;9.98;5.20;;;30.60;99.90;;;;;;5034762;28;20275;-65
2023/03/10 06:34:31;;;;;;;8.30;5.15;;;30.60;99.90;;;;;;5034275;28;20075;-69
2023/03/10 06:36:58;;;;;;;7.70;5.05;;;30.60;99.90;;;;;;5033537;28;20474;-69
2023/03/10 06:39:27;;;;;;;7.72;4.90;;;30.80;99.90;;;;;;5052236;28;20405;-66
2023/03/10 06:41:54;;;;;;;9.75;4.90;;;30.90;99.90;;;;;;5051575;28;20028;-67
2023/03/10 06:44:21;;;;;;;7.30;4.70;;;30.90;99.90;;;;;;5051527;28;20025;-65
2023/03/10 06:46:47;;;;;;;7.20;4.53;;;30.90;99.90;;;;;;5052211;28;20045;-71
2023/03/10 06:49:14;;;;;;;8.63;4.28;;;30.80;99.90;;;;;;5053433;28;20013;-68
2023/03/10 06:51:46;;;;;;;6.28;4.05;;;30.80;99.90;;;;;;5053365;28;20028;-68
2023/03/10 06:54:12;;;;;;;;;;;30.80;99.90;;;;;;5051986;28;20070;-67
2023/03/10 06:56:39;;;;;;;7.10;4.35;;;30.80;99.90;;;;;;5053770;28;20011;-65
2023/03/10 06:59:05;;;;;;;5.90;4.20;;;30.80;99.90;;;;;;5053394;28;20025;-64
2023/03/10 07:01:33;;;;;;;6.10;4.30;;;30.70;99.90;;;;;;5051894;28;20132;-65
2023/03/10 07:04:00;;;;;;;8.30;4.43;;;30.70;99.90;;;;;;5053211;28;20497;-64
2023/03/10 07:06:27;;;;;;;7.78;4.50;;;30.70;99.90;;;;;;5053099;28;20045;-65
2023/03/10 07:08:54;;;;;;;10.45;5.00;;;30.70;99.90;;;;;;5052965;28;20437;-63
2023/03/10 07:11:22;;;;;;;5.75;4.07;;;30.70;99.90;;;;;;5052847;28;20550;-64
2023/03/10 07:13:48;;;;;;;7.82;4.53;;;30.60;99.90;;;;;;5053488;28;20036;-68
2023/03/10 07:16:15;;;;;;;8.52;3.80;;;30.60;99.90;;;;;;5054259;28;20036;-66
2023/03/10 07:18:42;;;;;;;6.45;3.45;;;30.60;99.90;;;;;;5054088;28;20032;-66
2023/03/10 07:21:10;;;;;;;4.70;3.15;;;30.70;99.90;;;;;;5054113;28;20116;-66
2023/03/10 07:23:37;;;;;;;4.90;3.47;;;30.70;99.90;;;;;;5053327;28;20409;-67
2023/03/10 07:26:07;;;;;;;4.82;3.50;;;30.80;99.90;;;;;;5052430;28;20024;-67
2023/03/10 07:28:35;;;;;;;10.35;5.03;;;30.80;99.90;;;;;;5049551;28;20083;-67
2023/03/10 07:31:04;;;;;;;7.97;5.40;;;30.90;99.90;;;;;;5053524;28;20029;-67
2023/03/10 07:33:31;;;;;;;11.25;5.75;;;31.00;99.90;;;;;;5053507;28;20028;-68
2023/03/10 07:35:58;;;;;;;11.00;6.00;;;31.00;99.90;;;;;;5053652;28;20021;-65
2023/03/10 07:38:25;;;;;;;11.18;5.35;;;31.00;99.90;;;;;;5053640;28;20040;-65
2023/03/10 07:40:51;;;;;;;7.75;5.22;;;31.00;99.90;;;;;;5053513;28;20078;-65
2023/03/10 07:43:18;;;;;;;8.65;5.63;;;31.00;99.90;;;;;;5053527;28;20078;-64
2023/03/10 07:45:44;;;;;;;7.63;6.10;;;31.10;99.90;;;;;;5053370;28;20118;-65
2023/03/10 07:48:11;;;;;;;6.93;5.35;;;31.20;99.90;;;;;;5053295;28;20123;-65
2023/03/10 07:50:37;;;;;;;11.77;5.43;;;31.20;99.90;;;;;;5053487;28;20377;-65
2023/03/10 07:53:04;;;;;;;11.00;6.68;;;31.20;99.90;;;;;;5053669;28;20469;-65
2023/03/10 07:55:31;;;;;;;9.07;5.13;;;31.30;99.90;;;;;;5053340;28;20104;-65
2023/03/10 07:57:59;;;;;;;10.02;4.00;;;31.30;99.90;;;;;;5053439;28;20025;-65
2023/03/10 08:00:26;;;;;;;12.70;4.18;;;31.20;99.90;;;;;;5051958;28;20044;-66
2023/03/10 08:02:53;;;;;;;6.28;3.80;;;31.10;99.90;;;;;;5049748;28;20016;-68
2023/03/10 08:05:20;;;;;;;5.30;4.10;;;31.10;99.90;;;;;;5051034;28;20074;-66
2023/03/10 08:07:46;;;;;;;9.43;5.05;;;31.10;99.90;;;;;;5050872;28;20025;-65
2023/03/10 08:10:13;;;;;;;8.45;5.00;;;31.10;99.90;;;;;;5050017;28;20045;-65
2023/03/10 08:12:39;;;;;;;7.97;3.65;;;31.10;99.90;;;;;;5050524;28;20044;-67
2023/03/10 08:15:07;;;;;;;6.68;4.03;;;31.10;99.90;;;;;;5044417;28;20035;-67
2023/03/10 08:17:34;;;;;;;5.78;4.45;;;31.10;99.90;;;;;;5032831;28;20529;-67
2023/03/10 08:20:00;;;;;;;9.18;4.93;;;31.10;99.90;;;;;;5044217;28;20060;-67
2023/03/10 08:22:27;;;;;;;7.95;5.00;;;31.20;99.90;;;;;;5032527;28;20064;-65
2023/03/10 08:24:55;;;;;;;16.67;6.40;;;31.20;99.90;;;;;;5043649;28;20025;-66
2023/03/10 08:27:21;;;;;;;12.75;6.97;;;31.20;99.90;;;;;;5033059;28;20028;-67
2023/03/10 08:29:48;;;;;;;9.63;6.45;;;31.20;99.90;;;;;;5043166;28;20040;-65
2023/03/10 08:32:14;;;;;;;16.17;7.25;;;31.20;99.90;;;;;;5033446;28;20536;-67
2023/03/10 08:34:41;;;;;;;14.13;7.03;;;31.20;99.90;;;;;;5041739;28;20029;-65
2023/03/10 08:37:09;;;;;;;11.57;6.28;;;31.20;99.90;;;;;;5034442;28;20175;-68
2023/03/10 08:39:35;;;;;;;11.35;7.10;;;31.20;99.90;;;;;;5043740;28;20029;-67
2023/03/10 08:42:02;;;;;;;12.88;6.50;;;31.20;99.90;;;;;;5039078;28;20022;-66
2023/03/10 08:44:29;;;;;;;10.75;6.18;;;31.20;99.90;;;;;;5037009;28;20030;-66
2023/03/10 08:46:55;;;;;;;9.23;5.60;;;31.20;99.90;;;;;;5042288;28;20044;-64
2023/03/10 08:49:22;;;;;;;14.73;6.03;;;31.20;99.90;;;;;;5042264;28;20021;-65
2023/03/10 08:51:49;;;;;;;12.00;6.10;;;31.20;99.90;;;;;;5043405;28;20388;-67
2023/03/10 08:54:18;;;;;;;13.73;6.00;;;31.20;99.90;;;;;;5056783;28;20036;-64
2023/03/10 08:56:45;;;;;;;10.55;5.55;;;31.20;99.90;;;;;;5056724;28;20428;-65
2023/03/10 08:59:11;;;;;;;12.55;6.03;;;31.20;99.90;;;;;;5055359;28;20385;-65
2023/03/10 09:01:38;;;;;;;9.95;6.20;;;31.30;99.90;;;;;;5056730;28;20032;-65
2023/03/10 09:04:06;;;;;;;11.05;6.55;;;31.30;99.90;;;;;;5056357;28;20059;-65
2023/03/10 09:06:34;;;;;;;10.48;6.25;;;31.40;99.90;;;;;;5056466;28;20017;-69
2023/03/10 09:09:01;;;;;;;9.63;5.85;;;31.40;99.90;;;;;;5056501;28;20484;-65
2023/03/10 09:11:31;;;;;;;10.57;5.35;;;31.40;99.90;;;;;;5055983;28;20109;-66
2023/03/10 09:13:58;;;;;;;8.68;4.97;;;31.30;99.90;;;;;;5056444;28;20104;-68
2023/03/10 09:16:25;;;;;;;8.60;5.30;;;31.30;99.90;;;;;;5055296;28;20025;-68
2023/03/10 09:18:52;;;;;;;11.10;5.93;;;31.30;99.90;;;;;;5047942;28;20025;-66
2023/03/10 09:21:19;;;;;;;13.15;6.22;;;31.30;99.90;;;;;;5038179;28;20025;-67
2023/03/10 09:23:47;;;;;;;16.30;7.25;;;31.30;99.90;;;;;;5034247;28;20478;-68
2023/03/10 09:26:15;;;;;;;20.15;8.77;;;31.30;99.90;;;;;;5034290;28;20045;-68
2023/03/10 09:28:42;;;;;;;12.77;8.35;;;31.20;99.90;;;;;;5034273;28;20486;-67
2023/03/10 09:31:14;;;;;;;17.15;8.23;;;31.20;99.90;;;;;;5034945;28;20022;-68
2023/03/10 09:33:41;;;;;;;19.48;8.32;;;31.10;99.90;;;;;;5036207;28;20101;-67
2023/03/10 09:36:08;;;;;;;18.42;10.30;;;31.10;99.90;;;;;;5036148;28;20169;-68
2023/03/10 09:38:35;;;;;;;15.73;9.93;;;31.00;99.90;;;;;;5036033;28;20474;-68
2023/03/10 09:41:35;;;;;;;16.13;9.00;;;30.90;99.90;;;;;;5035599;28;20037;-68
2023/03/10 09:44:18;;;;;;;13.70;8.70;;;30.70;99.90;;;;;;5035807;28;20494;-68
2023/03/10 09:47:20;;;;;;;20.27;8.48;;;30.60;99.90;;;;;;5035785;28;20401;-68
2023/03/10 09:50:10;;;;;;;15.05;8.13;;;30.30;99.90;;;;;;5046766;28;20041;-64
2023/03/10 09:52:46;;;;;;;12.23;8.05;;;30.20;99.90;;;;;;5035967;28;20037;-65
2023/03/10 09:55:19;;;;;;;17.27;8.82;;;30.10;99.90;;;;;;5035979;28;20099;-65
2023/03/10 09:57:49;;;;;;;24.23;11.02;;;30.00;99.90;;;;;;5044772;28;20108;-66
2023/03/10 10:00:22;;;;;;;14.63;6.57;;;29.90;99.90;;;;;;5055474;28;20029;-67
2023/03/10 10:02:54;;;;;;;9.88;4.82;;;29.60;99.90;;;;;;5055338;28;20100;-65
2023/03/10 10:05:32;;;;;;;6.75;4.30;;;29.30;99.90;;;;;;5055749;28;20025;-68
2023/03/10 10:08:04;;;;;;;7.22;4.45;;;28.80;99.90;;;;;;5054983;28;20079;-71
2023/03/10 10:10:35;;;;;;;;;;;28.60;99.90;;;;;;5055849;28;20033;-71
2023/03/10 10:13:16;;;;;;;4.93;3.30;;;28.50;99.90;;;;;;5055675;28;20288;-66
2023/03/10 10:16:06;;;;;;;6.72;3.90;;;28.20;99.90;;;;;;5055103;28;20108;-66
2023/03/10 10:18:46;;;;;;;7.00;3.35;;;28.50;99.90;;;;;;5055383;28;20406;-66
2023/03/10 10:21:20;;;;;;;7.97;3.70;;;28.50;99.90;;;;;;5055253;28;20391;-66
2023/03/10 10:23:53;;;;;;;10.15;5.35;;;28.60;99.90;;;;;;5048382;28;20056;-67
2023/03/10 10:26:27;;;;;;;10.45;5.85;;;28.60;99.90;;;;;;5047599;28;20029;-67
2023/03/10 10:28:57;;;;;;;9.98;5.15;;;28.50;99.90;;;;;;5043374;28;20382;-68
2023/03/10 10:31:26;;;;;;;9.55;5.25;;;28.50;99.90;;;;;;5035570;28;20029;-67
2023/03/10 10:34:17;;;;;;;13.25;5.78;;;28.60;99.90;;;;;;5055098;28;20504;-66
2023/03/10 10:36:50;;;;;;;13.70;6.78;;;28.60;99.90;;;;;;5054952;28;20022;-67
2023/03/10 10:39:25;;;;;;;13.52;7.22;;;28.40;99.90;;;;;;5046292;28;20048;-67
2023/03/10 10:41:52;;;;;;;13.75;7.07;;;28.20;99.90;;;;;;5055076;28;20465;-67
2023/03/10 10:44:20;;;;;;;11.10;6.53;;;28.20;99.90;;;;;;5053724;28;20032;-65
2023/03/10 10:46:55;;;;;;;11.70;6.40;;;28.20;99.90;;;;;;5053826;28;20044;-64
2023/03/10 10:49:27;;;;;;;13.88;6.35;;;28.20;99.90;;;;;;5054029;28;20016;-66
2023/03/10 10:51:59;;;;;;;11.88;6.50;;;28.10;99.90;;;;;;5053938;28;20043;-65
2023/03/10 10:54:30;;;;;;;9.88;5.07;;;28.10;99.90;;;;;;5051564;28;20033;-66
2023/03/10 10:57:01;;;;;;;11.73;5.32;;;28.10;99.90;;;;;;5054992;28;20025;-66
2023/03/10 10:59:35;;;;;;;12.00;4.68;;;28.00;99.90;;;;;;5054602;28;20127;-66
2023/03/10 11:02:30;;;;;;;9.60;5.07;;;28.10;99.90;;;;;;5045500;28;20581;-68
2023/03/10 11:05:17;;;;;;;8.68;5.53;;;28.20;99.90;;;;;;5031376;28;20052;-68
2023/03/10 11:07:44;;;;;;;11.85;5.57;;;28.30;99.90;;;;;;5050704;28;20056;-67
2023/03/10 11:10:14;;;;;;;7.95;5.18;;;28.30;99.90;;;;;;5053153;28;20109;-67
2023/03/10 11:12:50;;;;;;;7.97;4.82;;;28.30;99.90;;;;;;5053392;28;20037;-68
2023/03/10 11:15:35;;;;;;;32.47;9.68;;;28.30;99.90;;;;;;5053161;28;20424;-66
2023/03/10 11:18:14;;;;;;;16.23;8.48;;;28.10;99.90;;;;;;5052490;28;20513;-66
2023/03/10 11:21:03;;;;;;;14.48;7.43;;;28.10;99.90;;;;;;5053186;28;20025;-67
2023/03/10 11:23:57;;;;;;;12.32;7.25;;;28.20;99.90;;;;;;5045554;28;20063;-68
2023/03/10 11:26:51;;;;;;;8.77;6.07;;;28.20;99.90;;;;;;5052914;28;20028;-63
2023/03/10 11:29:31;;;;;;;11.75;6.57;;;28.20;99.90;;;;;;5052043;28;20389;-65
2023/03/10 11:32:12;;;;;;;9.38;5.40;;;28.30;99.90;;;;;;5051206;28;20021;-67
2023/03/10 11:34:45;;;;;;;15.90;6.70;;;28.20;99.90;;;;;;5045034;28;20033;-67
2023/03/10 11:37:40;;;;;;;;;;;28.20;99.90;;;;;;5054366;28;20517;-71
2023/03/10 11:40:35;;;;;;;12.65;5.97;;;28.20;99.90;;;;;;5045187;28;19959;-67
2023/03/10 11:43:05;;;;;;;11.80;6.90;;;28.20;99.90;;;;;;5051286;28;20381;-68
2023/03/10 11:45:42;;;;;;;10.57;6.60;;;28.10;99.90;;;;;;5042769;28;20031;-67
2023/03/10 11:48:23;;;;;;;11.77;6.53;;;28.10;99.90;;;;;;5034716;28;20046;-67
2023/03/10 11:50:54;;;;;;;15.40;6.35;;;28.10;99.90;;;;;;5048012;28;20112;-68
2023/03/10 11:53:44;;;;;;;12.05;7.35;;;28.10;99.90;;;;;;5053441;28;20107;-66
2023/03/10 11:56:17;;;;;;;14.25;7.93;;;28.00;99.90;;;;;;5053484;28;20037;-66
2023/03/10 11:58:49;;;;;;;11.95;6.80;;;28.00;99.90;;;;;;5053373;28;20082;-69
2023/03/10 12:01:39;;;;;;;16.25;7.93;;;28.10;99.90;;;;;;5043783;28;20056;-64
2023/03/10 12:04:30;;;;;;;16.50;9.35;;;28.10;99.90;;;;;;5032797;28;20437;-67
2023/03/10 12:07:09;;;;;;;24.00;16.77;;;28.20;99.90;;;;;;5042116;28;20104;-66
2023/03/10 12:09:50;;;;;;;30.17;22.42;;;28.20;99.90;;;;;;5052444;28;20037;-67
2023/03/10 12:12:24;;;;;;;30.77;17.85;;;28.20;99.90;;;;;;5051953;28;20096;-66
2023/03/10 12:14:52;;;;;;;32.10;20.67;;;28.20;99.90;;;;;;5050578;28;20499;-66
2023/03/10 12:17:19;;;;;;;37.42;26.00;;;28.20;99.90;;;;;;5052225;28;20411;-66
2023/03/10 12:20:13;;;;;;;34.55;18.30;;;28.20;99.90;;;;;;5052229;28;20461;-67
2023/03/10 12:22:49;;;;;;;23.90;15.27;;;28.20;99.90;;;;;;5051830;28;20044;-65
2023/03/10 12:25:28;;;;;;;21.00;12.55;;;28.20;99.90;;;;;;5052635;28;20128;-65
2023/03/10 12:28:15;;;;;;;16.83;10.30;;;28.20;99.90;;;;;;5053929;28;20032;-64
2023/03/10 12:30:58;;;;;;;17.70;9.48;;;28.20;99.90;;;;;;5053341;28;20481;-66
2023/03/10 12:33:29;;;;;;;;;;;28.20;99.90;;;;;;5051230;28;20036;-65
2023/03/10 12:36:05;;;;;;;13.07;8.75;;;28.10;99.90;;;;;;5047854;28;19904;-63
2023/03/10 12:38:41;;;;;;;12.73;8.55;;;28.10;99.90;;;;;;5052351;28;20032;-63
2023/03/10 12:41:09;;;;;;;15.20;8.90;;;28.10;99.90;;;;;;5052255;28;20044;-64
2023/03/10 12:44:14;;;;;;;17.65;9.48;;;28.10;99.90;;;;;;5052716;28;20178;-63
2023/03/10 12:46:43;;;;;;;48.33;36.25;;;28.00;99.90;;;;;;5048326;28;20044;-64
2023/03/10 12:49:51;;;;;;;95.80;67.47;;;28.00;99.90;;;;;;5052075;28;20481;-65
2023/03/10 12:52:45;;;;;;;46.40;32.67;;;28.00;99.90;;;;;;5027824;28;20124;-67
2023/03/10 12:55:25;;;;;;;41.38;29.30;;;27.90;99.90;;;;;;5033590;28;20022;-67